Time;durP1;ratioP1;P1;durP2;ratioP2;P2;SDS_P1;SDS_P2;PMS_P1;PMS_P2;Temp;Humidity;BMP_temperature;BMP_pressure;BME280_temperature;BME280_humidity;BME280_pressure;Samples;Min_cycle;Max_cycle;Signal;HPM_P1;HPM_P2
2022/12/04 04:03:09;;;;;;;2.10;2.10;;;2.30;91.40;;;;;;4958212;28;20498;-78
2022/12/04 04:05:40;;;;;;;1.90;1.90;;;2.20;91.70;;;;;;4958532;29;20431;-78
2022/12/04 04:10:54;;;;;;;1.70;1.70;;;2.20;92.00;;;;;;4962965;28;20571;-78
2022/12/04 04:24:46;;;;;;;1.47;1.47;;;2.10;91.90;;;;;;4988280;28;20411;-78
2022/12/04 04:27:14;;;;;;;1.63;1.63;;;2.10;92.10;;;;;;4987211;28;20461;-78
2022/12/04 04:29:42;;;;;;;1.97;1.97;;;2.20;92.60;;;;;;4987405;28;20472;-78
2022/12/04 04:32:13;;;;;;;1.40;1.40;;;2.10;91.60;;;;;;4989114;28;20466;-78
2022/12/04 04:34:50;;;;;;;1.93;1.87;;;2.20;92.00;;;;;;4985158;28;20441;-78
2022/12/04 04:37:26;;;;;;;2.00;2.00;;;2.10;91.80;;;;;;4986559;28;20434;-78
2022/12/04 04:39:58;;;;;;;1.70;1.70;;;2.10;91.90;;;;;;4984715;28;20488;-78
2022/12/04 04:42:27;;;;;;;1.63;1.63;;;2.00;92.30;;;;;;4976590;28;20486;-78
2022/12/04 04:45:00;;;;;;;1.50;1.50;;;2.10;92.40;;;;;;4976712;28;20446;-78
2022/12/04 04:47:33;;;;;;;1.40;1.40;;;2.20;92.20;;;;;;4976536;28;20442;-78
2022/12/04 04:50:02;;;;;;;1.60;1.60;;;2.20;91.60;;;;;;4976717;28;20446;-78
2022/12/04 04:52:31;;;;;;;1.60;1.60;;;2.20;91.20;;;;;;4976541;28;20463;-78
2022/12/04 04:54:59;;;;;;;1.50;1.50;;;2.30;91.30;;;;;;4976493;28;20477;-78
2022/12/04 04:57:28;;;;;;;1.40;1.40;;;2.30;91.20;;;;;;4976508;28;20454;-78
2022/12/04 04:59:55;;;;;;;1.67;1.63;;;2.20;91.10;;;;;;4976650;28;20461;-78
2022/12/04 05:02:21;;;;;;;1.50;1.50;;;2.20;91.30;;;;;;4975836;28;20497;-78
2022/12/04 05:04:48;;;;;;;1.60;1.60;;;2.40;91.30;;;;;;4976326;28;20442;-78
2022/12/04 05:07:16;;;;;;;1.33;1.33;;;2.50;91.00;;;;;;4976202;28;20453;-78
2022/12/04 05:09:43;;;;;;;1.43;1.43;;;2.40;90.40;;;;;;4975928;28;20442;-79
2022/12/04 05:12:10;;;;;;;1.40;1.40;;;2.30;90.70;;;;;;4976140;28;20475;-79
2022/12/04 05:14:37;;;;;;;1.50;1.50;;;2.40;91.20;;;;;;4975266;28;20823;-78
2022/12/04 05:17:05;;;;;;;1.70;1.70;;;2.40;90.60;;;;;;4976158;28;20458;-78
2022/12/04 05:22:18;;;;;;;1.77;1.77;;;2.40;90.80;;;;;;4975983;28;20559;-79
2022/12/04 05:24:45;;;;;;;1.70;1.70;;;2.50;90.90;;;;;;4975921;28;20450;-79
2022/12/04 05:27:11;;;;;;;1.50;1.50;;;2.50;90.80;;;;;;4975781;28;20829;-78
2022/12/04 05:29:38;;;;;;;1.53;1.53;;;2.40;90.90;;;;;;4975896;28;20458;-79
2022/12/04 05:32:05;;;;;;;1.50;1.50;;;2.50;91.20;;;;;;4975636;28;20470;-79
2022/12/04 05:34:47;;;;;;;1.60;1.60;;;2.40;91.10;;;;;;4975697;28;20948;-78
2022/12/04 05:37:13;;;;;;;1.53;1.53;;;2.40;91.30;;;;;;4976136;28;20431;-79
2022/12/04 05:39:41;;;;;;;1.90;1.90;;;2.50;91.20;;;;;;4975644;28;20460;-78
2022/12/04 05:42:08;;;;;;;1.60;1.50;;;2.40;91.00;;;;;;4975798;28;20474;-78
2022/12/04 05:44:35;;;;;;;1.60;1.60;;;2.30;91.20;;;;;;4975874;28;20457;-79
2022/12/04 05:47:01;;;;;;;1.80;1.80;;;2.20;91.40;;;;;;4975728;28;20461;-79
2022/12/04 05:49:29;;;;;;;1.63;1.63;;;2.30;91.60;;;;;;4975829;28;20446;-78
2022/12/04 05:51:56;;;;;;;1.43;1.43;;;2.20;91.60;;;;;;4975753;28;20502;-78
2022/12/04 05:54:23;;;;;;;1.70;1.70;;;2.40;91.80;;;;;;4975674;28;20473;-78
2022/12/04 05:56:51;;;;;;;1.73;1.73;;;2.60;91.50;;;;;;4975379;28;20453;-78
2022/12/04 05:59:19;;;;;;;1.30;1.30;;;2.70;90.50;;;;;;4975388;28;20446;-78
2022/12/04 06:01:46;;;;;;;1.70;1.70;;;2.60;89.90;;;;;;4977055;28;20491;-79
2022/12/04 06:04:13;;;;;;;1.20;1.20;;;2.60;90.70;;;;;;4975007;28;20540;-79
2022/12/04 06:06:39;;;;;;;1.20;1.20;;;2.80;90.30;;;;;;4975153;28;20454;-79
2022/12/04 06:09:08;;;;;;;1.40;1.40;;;3.00;90.20;;;;;;4974956;28;20442;-79
2022/12/04 06:11:36;;;;;;;1.60;1.60;;;3.10;89.20;;;;;;4974873;28;20482;-79
2022/12/04 06:14:06;;;;;;;1.60;1.60;;;3.00;88.60;;;;;;4974874;28;20453;-79
2022/12/04 06:16:35;;;;;;;1.70;1.60;;;2.80;88.90;;;;;;4975000;28;20438;-79
2022/12/04 06:19:04;;;;;;;1.30;1.30;;;2.60;90.10;;;;;;4974837;28;20462;-78
2022/12/04 06:21:33;;;;;;;1.40;1.40;;;2.60;90.60;;;;;;4974753;28;20466;-79
2022/12/04 06:23:59;;;;;;;1.50;1.50;;;2.60;90.30;;;;;;4974438;28;20486;-78
2022/12/04 06:26:27;;;;;;;1.60;1.60;;;2.60;90.40;;;;;;4973634;28;20454;-79
2022/12/04 06:28:55;;;;;;;1.50;1.50;;;2.70;90.40;;;;;;4974798;28;20460;-79
2022/12/04 06:31:24;;;;;;;1.43;1.43;;;2.80;90.30;;;;;;4974312;28;20983;-79
2022/12/04 06:33:53;;;;;;;1.57;1.57;;;2.80;90.00;;;;;;4974622;28;20445;-78
2022/12/04 06:36:20;;;;;;;1.30;1.30;;;2.90;89.70;;;;;;4974704;28;20461;-79
2022/12/04 06:38:48;;;;;;;1.77;1.77;;;3.00;89.30;;;;;;4974944;28;20458;-79
2022/12/04 06:41:16;;;;;;;1.30;1.30;;;2.90;88.90;;;;;;4974300;28;20980;-78
2022/12/04 06:43:44;;;;;;;1.70;1.60;;;2.90;89.20;;;;;;4974604;28;20555;-79
2022/12/04 06:46:12;;;;;;;1.30;1.30;;;2.80;88.90;;;;;;4974591;28;20489;-78
2022/12/04 06:48:41;;;;;;;1.37;1.37;;;2.70;89.30;;;;;;4974173;28;20451;-79
2022/12/04 06:51:10;;;;;;;1.47;1.47;;;2.60;89.60;;;;;;4974463;28;20470;-78
2022/12/04 06:53:38;;;;;;;1.30;1.30;;;2.60;90.00;;;;;;4974381;28;20555;-78
2022/12/04 06:56:07;;;;;;;1.27;1.27;;;2.70;89.70;;;;;;4974399;28;20455;-78
2022/12/04 06:58:34;;;;;;;1.30;1.30;;;2.90;89.80;;;;;;4974166;28;20445;-77
2022/12/04 07:01:06;;;;;;;1.50;1.50;;;3.00;89.20;;;;;;4974145;28;20860;-77
2022/12/04 07:03:33;;;;;;;1.27;1.27;;;3.10;89.00;;;;;;4973943;28;21098;-77
2022/12/04 07:06:10;;;;;;;1.40;1.40;;;3.10;88.40;;;;;;4974282;28;20446;-77
2022/12/04 07:08:37;;;;;;;1.30;1.30;;;3.00;88.60;;;;;;4974259;28;20430;-77
2022/12/04 07:11:04;;;;;;;1.50;1.50;;;2.90;88.40;;;;;;4974171;28;20475;-78
2022/12/04 07:13:31;;;;;;;1.60;1.60;;;3.00;88.90;;;;;;4974254;28;20450;-78
2022/12/04 07:16:00;;;;;;;1.57;1.57;;;3.10;88.90;;;;;;4974213;28;20450;-79
2022/12/04 07:18:26;;;;;;;1.50;1.50;;;3.20;87.90;;;;;;4973928;28;20950;-78
2022/12/04 07:20:53;;;;;;;1.63;1.63;;;3.20;88.30;;;;;;4974119;28;20470;-78
2022/12/04 07:23:21;;;;;;;1.60;1.60;;;3.00;88.00;;;;;;4973781;28;20866;-78
2022/12/04 07:25:48;;;;;;;1.40;1.40;;;3.10;88.30;;;;;;4974153;28;20457;-78
2022/12/04 07:28:14;;;;;;;1.67;1.67;;;3.10;88.50;;;;;;4974187;28;20457;-78
2022/12/04 07:30:41;;;;;;;1.63;1.63;;;3.00;88.10;;;;;;4973804;28;21107;-78
2022/12/04 07:33:08;;;;;;;1.90;1.80;;;3.20;88.50;;;;;;4974042;28;20473;-78
2022/12/04 07:35:35;;;;;;;1.90;1.90;;;3.00;88.30;;;;;;4974090;28;20453;-78
2022/12/04 07:38:01;;;;;;;1.50;1.50;;;2.90;89.20;;;;;;4976872;28;20986;-78
2022/12/04 07:40:29;;;;;;;1.63;1.63;;;3.00;89.70;;;;;;4977743;28;20454;-79
2022/12/04 07:42:57;;;;;;;1.90;1.90;;;3.10;89.30;;;;;;4977702;28;20493;-78
2022/12/04 07:45:23;;;;;;;1.87;1.87;;;3.30;89.40;;;;;;4977625;28;20454;-79
2022/12/04 07:47:50;;;;;;;1.43;1.43;;;3.40;88.60;;;;;;4977633;28;20453;-78
2022/12/04 07:50:17;;;;;;;1.60;1.60;;;3.50;88.40;;;;;;4977621;28;20454;-78
2022/12/04 07:52:43;;;;;;;1.90;1.90;;;3.60;88.10;;;;;;4977414;28;20477;-78
2022/12/04 07:55:10;;;;;;;1.33;1.33;;;3.60;87.70;;;;;;4977350;28;20973;-80
2022/12/04 07:57:38;;;;;;;1.80;1.80;;;3.40;87.90;;;;;;4977801;28;20453;-79
2022/12/04 08:00:06;;;;;;;2.10;2.10;;;3.30;88.60;;;;;;4978009;28;20501;-79
2022/12/04 08:02:33;;;;;;;2.03;2.03;;;3.50;88.80;;;;;;4977920;28;20486;-80
2022/12/04 08:04:59;;;;;;;1.70;1.70;;;3.70;88.50;;;;;;4978593;28;20453;-79
2022/12/04 08:07:26;;;;;;;1.80;1.80;;;3.70;87.50;;;;;;4977705;28;20531;-79
2022/12/04 08:09:53;;;;;;;1.60;1.60;;;3.80;87.80;;;;;;4977651;28;20451;-79
2022/12/04 08:12:19;;;;;;;2.10;2.00;;;3.80;87.40;;;;;;4977350;28;20477;-79
2022/12/04 08:14:49;;;;;;;1.80;1.80;;;3.80;87.60;;;;;;4977796;28;20446;-79
2022/12/04 08:17:15;;;;;;;1.60;1.60;;;3.80;86.90;;;;;;4976982;28;20943;-78
2022/12/04 08:19:42;;;;;;;1.67;1.67;;;3.70;87.70;;;;;;4977312;28;20454;-80
2022/12/04 08:22:09;;;;;;;1.70;1.70;;;3.70;87.90;;;;;;4976812;28;20847;-75
2022/12/04 08:24:36;;;;;;;1.90;1.90;;;3.70;88.00;;;;;;4977021;28;20482;-77
2022/12/04 08:27:02;;;;;;;2.03;1.93;;;3.70;87.50;;;;;;4977425;28;20869;-79
2022/12/04 08:29:29;;;;;;;1.80;1.80;;;3.50;88.20;;;;;;4977962;28;20450;-81
2022/12/04 08:31:57;;;;;;;1.63;1.63;;;3.50;89.10;;;;;;4980103;28;20493;-80
2022/12/04 08:34:24;;;;;;;2.10;2.00;;;3.60;88.40;;;;;;4980864;28;20450;-81
2022/12/04 08:36:51;;;;;;;1.60;1.60;;;3.70;88.50;;;;;;4978185;28;20457;-80
2022/12/04 08:39:18;;;;;;;1.50;1.50;;;3.60;88.10;;;;;;4978111;28;20517;-81
2022/12/04 08:41:44;;;;;;;1.73;1.73;;;3.50;88.30;;;;;;4977614;28;20474;-80
2022/12/04 08:44:11;;;;;;;2.00;2.00;;;3.50;88.90;;;;;;4978012;28;20482;-81
2022/12/04 08:46:38;;;;;;;1.63;1.63;;;3.50;89.10;;;;;;4978620;28;20459;-80
2022/12/04 08:49:06;;;;;;;1.70;1.70;;;3.60;88.70;;;;;;4978783;28;20446;-80
2022/12/04 08:51:34;;;;;;;1.77;1.77;;;3.50;88.20;;;;;;4979395;28;20470;-80
2022/12/04 08:54:03;;;;;;;1.50;1.50;;;3.50;88.70;;;;;;4980624;28;20486;-80
2022/12/04 08:56:31;;;;;;;1.70;1.70;;;3.50;89.20;;;;;;4986473;28;20450;-80
2022/12/04 08:58:58;;;;;;;1.70;1.70;;;3.80;88.90;;;;;;4985867;28;20458;-80
2022/12/04 09:01:26;;;;;;;1.80;1.80;;;3.50;88.10;;;;;;4980465;28;20499;-81
2022/12/04 09:03:53;;;;;;;2.07;2.07;;;3.60;89.10;;;;;;4979832;28;20486;-81
2022/12/04 09:06:22;;;;;;;1.67;1.67;;;3.60;88.50;;;;;;4981188;28;20462;-80
2022/12/04 09:08:52;;;;;;;1.80;1.80;;;3.70;88.70;;;;;;4980701;28;20447;-81
2022/12/04 09:11:21;;;;;;;1.57;1.57;;;3.70;88.60;;;;;;4982109;28;20470;-80
2022/12/04 09:13:48;;;;;;;1.60;1.60;;;3.60;88.40;;;;;;4978783;28;20453;-80
2022/12/04 09:16:18;;;;;;;1.90;1.90;;;3.80;88.80;;;;;;4979804;28;20454;-81
2022/12/04 09:18:45;;;;;;;1.70;1.70;;;3.80;88.30;;;;;;4979759;28;20442;-80
2022/12/04 09:21:13;;;;;;;1.40;1.40;;;3.80;88.20;;;;;;4979218;28;20999;-80
2022/12/04 09:23:42;;;;;;;1.43;1.33;;;3.80;88.30;;;;;;4977447;28;20482;-81
2022/12/04 09:26:18;;;;;;;1.90;1.90;;;3.70;88.00;;;;;;4979359;28;20458;-80
2022/12/04 09:28:44;;;;;;;1.40;1.40;;;3.60;88.60;;;;;;4980256;28;20508;-80
2022/12/04 09:31:11;;;;;;;1.70;1.70;;;3.70;88.60;;;;;;4979402;28;20466;-81
2022/12/04 09:33:38;;;;;;;1.80;1.80;;;3.60;88.40;;;;;;4977957;28;20452;-81
2022/12/04 09:36:05;;;;;;;1.20;1.20;;;3.70;88.90;;;;;;4976801;28;20848;-81
2022/12/04 09:38:32;;;;;;;1.40;1.40;;;3.80;88.60;;;;;;4978063;28;20451;-81
2022/12/04 09:41:05;;;;;;;1.63;1.63;;;3.90;88.20;;;;;;4977506;28;20478;-80
2022/12/04 09:43:40;;;;;;;1.63;1.63;;;3.90;87.50;;;;;;4977707;28;20470;-80
2022/12/04 09:46:12;;;;;;;1.53;1.53;;;3.90;88.10;;;;;;4977261;28;20434;-81
2022/12/04 09:48:42;;;;;;;1.67;1.67;;;4.00;87.80;;;;;;4978158;28;20442;-80
2022/12/04 09:51:17;;;;;;;1.60;1.60;;;3.90;87.30;;;;;;4979128;28;20470;-80
2022/12/04 09:53:47;;;;;;;1.30;1.30;;;4.10;87.60;;;;;;4980188;28;20484;-80
2022/12/04 09:56:18;;;;;;;1.40;1.40;;;4.10;87.40;;;;;;4987520;28;20808;-79
2022/12/04 09:58:50;;;;;;;1.47;1.47;;;4.20;87.00;;;;;;4986587;28;20447;-80
2022/12/04 10:01:21;;;;;;;1.57;1.57;;;4.40;86.70;;;;;;4984834;28;21061;-80
2022/12/04 10:03:48;;;;;;;1.37;1.37;;;4.50;86.10;;;;;;4985036;28;20481;-79
2022/12/04 10:06:20;;;;;;;1.40;1.40;;;4.60;85.90;;;;;;4984944;28;20454;-80
2022/12/04 10:08:53;;;;;;;1.50;1.50;;;4.70;85.60;;;;;;4985008;28;20494;-80
2022/12/04 10:11:27;;;;;;;1.50;1.50;;;4.70;84.90;;;;;;4985608;28;20474;-79
2022/12/04 10:14:12;;;;;;;1.50;1.50;;;4.60;85.40;;;;;;4984694;28;20431;-80
2022/12/04 10:16:53;;;;;;;1.80;1.80;;;4.80;84.70;;;;;;4985718;28;20442;-80
2022/12/04 10:19:28;;;;;;;1.40;1.40;;;4.90;84.40;;;;;;4985183;28;20435;-80
2022/12/04 10:22:07;;;;;;;1.40;1.40;;;4.70;84.20;;;;;;4985429;28;20987;-80
2022/12/04 10:24:40;;;;;;;1.50;1.50;;;4.40;85.00;;;;;;4985123;28;20520;-80
2022/12/04 10:27:21;;;;;;;1.67;1.67;;;4.50;85.60;;;;;;4985525;28;20438;-80
2022/12/04 10:29:54;;;;;;;1.50;1.50;;;4.50;85.30;;;;;;4985312;28;20443;-80
2022/12/04 10:32:25;;;;;;;1.50;1.50;;;4.70;85.00;;;;;;4984982;28;20470;-80
2022/12/04 10:34:56;;;;;;;1.67;1.67;;;4.70;85.00;;;;;;4984712;28;20442;-80
2022/12/04 10:37:24;;;;;;;1.93;1.93;;;4.60;84.50;;;;;;4984630;28;20434;-80
2022/12/04 10:39:54;;;;;;;1.83;1.83;;;4.30;85.50;;;;;;4984635;28;20426;-80
2022/12/04 10:42:29;;;;;;;1.40;1.40;;;4.20;86.10;;;;;;4984853;28;20477;-79
2022/12/04 10:44:56;;;;;;;1.63;1.63;;;4.20;86.50;;;;;;4982992;28;20500;-80
2022/12/04 10:47:23;;;;;;;1.60;1.60;;;4.30;86.20;;;;;;4983259;28;20450;-80
2022/12/04 10:49:57;;;;;;;1.70;1.70;;;4.30;86.30;;;;;;4982401;28;20453;-80
2022/12/04 10:52:24;;;;;;;1.70;1.60;;;4.40;86.00;;;;;;4980491;28;20469;-79
2022/12/04 10:54:54;;;;;;;1.97;1.97;;;4.30;86.00;;;;;;4979602;28;20447;-80
2022/12/04 10:57:22;;;;;;;1.63;1.53;;;4.40;86.20;;;;;;4980351;28;20848;-80
2022/12/04 10:59:51;;;;;;;1.73;1.73;;;4.40;85.80;;;;;;4982692;28;20839;-80
2022/12/04 11:02:22;;;;;;;1.50;1.50;;;4.30;86.20;;;;;;4983453;28;20920;-80
2022/12/04 11:04:55;;;;;;;1.90;1.90;;;4.50;85.70;;;;;;4982546;28;20516;-80
2022/12/04 11:07:24;;;;;;;1.77;1.77;;;4.40;85.50;;;;;;4982376;28;20458;-80
2022/12/04 11:09:56;;;;;;;1.67;1.67;;;4.50;86.00;;;;;;4982089;28;20457;-80
2022/12/04 11:12:25;;;;;;;1.97;1.97;;;4.60;85.50;;;;;;4983554;28;20477;-79
2022/12/04 11:15:04;;;;;;;1.50;1.50;;;4.70;85.50;;;;;;4983229;28;20462;-80
2022/12/04 11:17:30;;;;;;;1.63;1.63;;;4.60;84.90;;;;;;4983672;28;20856;-80
2022/12/04 11:20:03;;;;;;;1.50;1.50;;;4.50;85.80;;;;;;4984604;28;20453;-79
2022/12/04 11:22:31;;;;;;;2.10;2.10;;;4.70;85.60;;;;;;4984932;28;20474;-79
2022/12/04 11:24:59;;;;;;;1.83;1.83;;;4.80;85.00;;;;;;4983396;28;20492;-80
2022/12/04 11:27:34;;;;;;;1.63;1.63;;;4.80;84.60;;;;;;4986553;28;20446;-79
2022/12/04 11:30:07;;;;;;;2.07;2.07;;;4.60;85.40;;;;;;4985346;28;20443;-79
2022/12/04 11:32:35;;;;;;;2.30;2.20;;;4.50;85.70;;;;;;4985234;28;20470;-79
2022/12/04 11:35:13;;;;;;;1.93;1.93;;;4.20;86.50;;;;;;4984599;28;20454;-80
2022/12/04 11:37:39;;;;;;;2.37;2.27;;;4.00;87.60;;;;;;4985338;28;20434;-80
2022/12/04 11:40:17;;;;;;;1.70;1.70;;;4.00;88.10;;;;;;4984107;28;20963;-80
2022/12/04 11:42:56;;;;;;;2.77;2.67;;;4.10;88.60;;;;;;4983950;28;20469;-80
2022/12/04 11:45:23;;;;;;;2.10;2.10;;;4.10;88.00;;;;;;4984950;28;20477;-80
2022/12/04 11:47:55;;;;;;;2.00;2.00;;;4.20;88.20;;;;;;4985338;28;20450;-79
2022/12/04 11:50:30;;;;;;;2.23;2.17;;;4.10;88.30;;;;;;4984427;28;20434;-79
2022/12/04 11:53:06;;;;;;;1.87;1.87;;;3.90;88.50;;;;;;4983977;28;20434;-80
2022/12/04 11:55:40;;;;;;;1.97;1.97;;;4.00;89.10;;;;;;4986281;28;20437;-80
2022/12/04 11:58:34;;;;;;;2.27;2.17;;;4.00;89.30;;;;;;4991813;28;20444;-79
2022/12/04 12:01:15;;;;;;;1.80;1.80;;;4.30;88.90;;;;;;4992175;28;20474;-81
2022/12/04 12:03:59;;;;;;;2.40;2.30;;;4.30;88.30;;;;;;4990559;28;20458;-80
2022/12/04 12:06:33;;;;;;;2.07;2.07;;;4.40;88.00;;;;;;4992279;28;20426;-80
2022/12/04 12:09:20;;;;;;;2.10;2.00;;;4.60;87.70;;;;;;4991671;28;20445;-79
2022/12/04 12:11:52;;;;;;;2.83;2.73;;;4.70;87.10;;;;;;4991156;28;20482;-79
2022/12/04 12:14:27;;;;;;;1.93;1.93;;;4.80;87.10;;;;;;4990667;28;20490;-79
2022/12/04 12:17:03;;;;;;;1.80;1.80;;;4.90;87.00;;;;;;4991456;28;20930;-79
2022/12/04 12:19:57;;;;;;;1.90;1.90;;;4.90;86.60;;;;;;4991012;28;20429;-79
2022/12/04 12:22:47;;;;;;;1.87;1.87;;;4.90;86.40;;;;;;4987827;28;20557;-79
2022/12/04 12:25:18;;;;;;;2.07;2.07;;;4.80;86.60;;;;;;4990281;28;20895;-79
2022/12/04 12:28:05;;;;;;;2.23;2.23;;;4.90;86.50;;;;;;4990617;28;20502;-77
2022/12/04 12:30:41;;;;;;;2.07;1.97;;;4.90;86.40;;;;;;4990689;28;20529;-80
2022/12/04 12:33:14;;;;;;;2.30;2.20;;;4.90;86.50;;;;;;4990567;28;20517;-78
2022/12/04 12:35:46;;;;;;;1.73;1.73;;;4.90;86.20;;;;;;4991027;28;20515;-79
2022/12/04 12:38:19;;;;;;;1.87;1.87;;;4.90;86.10;;;;;;4991042;28;20498;-79
2022/12/04 12:40:50;;;;;;;1.60;1.60;;;4.90;85.80;;;;;;4991207;28;20481;-79
2022/12/04 12:43:24;;;;;;;1.70;1.70;;;4.90;86.30;;;;;;4991260;28;20481;-79
2022/12/04 12:45:55;;;;;;;1.70;1.70;;;5.00;86.20;;;;;;4990947;28;20477;-80
2022/12/04 12:48:30;;;;;;;2.20;2.17;;;5.00;86.30;;;;;;4992097;28;20526;-80
2022/12/04 12:51:02;;;;;;;2.13;2.13;;;4.80;86.20;;;;;;4992227;28;20484;-81
2022/12/04 12:53:36;;;;;;;2.00;2.00;;;4.70;86.80;;;;;;4992065;28;20474;-80
2022/12/04 12:56:06;;;;;;;1.83;1.83;;;4.80;86.90;;;;;;4988588;28;20561;-80
2022/12/04 12:58:37;;;;;;;1.93;1.83;;;4.90;86.90;;;;;;4984740;28;20446;-81
2022/12/04 13:01:13;;;;;;;1.70;1.70;;;4.90;86.90;;;;;;4984089;28;20494;-81
2022/12/04 13:03:46;;;;;;;2.03;2.00;;;5.00;86.60;;;;;;4983847;28;20435;-80
2022/12/04 13:06:17;;;;;;;1.80;1.80;;;5.00;86.40;;;;;;4984226;28;20473;-81
2022/12/04 13:08:52;;;;;;;1.83;1.83;;;5.00;86.00;;;;;;4982532;28;20808;-81
2022/12/04 13:11:21;;;;;;;2.10;2.00;;;4.90;86.40;;;;;;4985569;28;20979;-80
2022/12/04 13:13:51;;;;;;;2.07;2.07;;;5.00;86.00;;;;;;4986399;28;20447;-81
2022/12/04 13:16:24;;;;;;;2.20;2.10;;;5.10;85.80;;;;;;4985643;28;20443;-80
2022/12/04 13:18:59;;;;;;;2.37;2.27;;;5.10;85.80;;;;;;4986276;28;20443;-81
2022/12/04 13:21:34;;;;;;;1.60;1.60;;;5.10;85.80;;;;;;4985458;28;20476;-80
2022/12/04 13:24:41;;;;;;;2.20;2.20;;;5.10;85.80;;;;;;4986235;28;20819;-80
2022/12/04 13:27:15;;;;;;;1.97;1.97;;;5.00;86.20;;;;;;4985108;28;20437;-81
2022/12/04 13:29:57;;;;;;;2.37;2.37;;;5.10;86.00;;;;;;4987465;28;20431;-81
2022/12/04 13:32:57;;;;;;;1.77;1.77;;;5.10;85.50;;;;;;4991811;28;20537;-81
2022/12/04 13:35:34;;;;;;;2.17;2.17;;;5.20;85.40;;;;;;4988382;28;20504;-79
2022/12/04 13:38:14;;;;;;;2.20;2.20;;;5.10;85.60;;;;;;4988832;28;20453;-77
2022/12/04 13:40:44;;;;;;;2.13;2.13;;;4.90;85.70;;;;;;4988866;28;20434;-77
2022/12/04 13:43:27;;;;;;;2.33;2.10;;;5.00;85.70;;;;;;4988646;28;20550;-78
2022/12/04 13:45:57;;;;;;;2.63;2.53;;;5.00;85.70;;;;;;4987221;28;20564;-73
2022/12/04 13:48:32;;;;;;;2.63;2.53;;;5.00;86.00;;;;;;4982297;28;20434;-77
2022/12/04 13:51:23;;;;;;;2.37;2.33;;;5.00;85.70;;;;;;4975240;28;20470;-78
2022/12/04 13:54:02;;;;;;;2.10;2.10;;;5.00;85.80;;;;;;4975253;28;20438;-77
2022/12/04 13:56:31;;;;;;;2.00;2.00;;;4.90;86.30;;;;;;4975172;28;20430;-78
2022/12/04 13:59:03;;;;;;;2.00;2.00;;;5.00;86.10;;;;;;4975282;28;20453;-79
2022/12/04 14:01:37;;;;;;;2.17;2.13;;;5.00;85.90;;;;;;4975083;28;20485;-79
2022/12/04 14:04:07;;;;;;;2.03;2.03;;;5.00;85.80;;;;;;4975592;28;20513;-77
2022/12/04 14:06:38;;;;;;;2.03;1.93;;;5.00;86.20;;;;;;4975059;28;20492;-77
2022/12/04 14:09:07;;;;;;;1.87;1.87;;;5.10;85.50;;;;;;4975086;28;20441;-76
2022/12/04 14:11:44;;;;;;;1.90;1.90;;;5.10;85.60;;;;;;4974890;28;20470;-78
2022/12/04 14:14:23;;;;;;;2.27;2.23;;;5.10;85.70;;;;;;4974937;28;20431;-78
2022/12/04 14:16:51;;;;;;;1.80;1.80;;;5.10;85.70;;;;;;4974591;28;20434;-78
2022/12/04 14:19:30;;;;;;;1.63;1.63;;;4.90;85.60;;;;;;4974695;28;20935;-79
2022/12/04 14:21:57;;;;;;;1.93;1.93;;;4.90;86.20;;;;;;4975059;28;20810;-79
2022/12/04 14:24:35;;;;;;;1.93;1.93;;;4.90;86.00;;;;;;4975053;28;20477;-78
2022/12/04 14:27:23;;;;;;;2.00;2.00;;;5.00;85.80;;;;;;4974708;28;20434;-78
2022/12/04 14:29:54;;;;;;;1.73;1.73;;;5.00;85.70;;;;;;4974357;28;20455;-78
2022/12/04 14:32:24;;;;;;;1.90;1.90;;;5.00;86.30;;;;;;4987656;28;20474;-78
2022/12/04 14:34:52;;;;;;;2.07;2.07;;;5.00;86.20;;;;;;4987568;28;20456;-79
2022/12/04 14:37:25;;;;;;;1.77;1.77;;;5.00;85.80;;;;;;4984888;28;20458;-78
2022/12/04 14:39:53;;;;;;;1.80;1.80;;;5.00;86.10;;;;;;4986741;28;20430;-78
2022/12/04 14:42:24;;;;;;;1.77;1.77;;;5.10;86.10;;;;;;4983765;28;20466;-78
2022/12/04 14:44:55;;;;;;;1.80;1.80;;;5.10;85.90;;;;;;4988504;28;20503;-80
2022/12/04 14:47:39;;;;;;;2.20;2.10;;;5.20;85.40;;;;;;4986658;28;20451;-78
2022/12/04 14:50:21;;;;;;;1.70;1.70;;;5.00;85.10;;;;;;4986435;28;20458;-77
2022/12/04 14:52:54;;;;;;;1.77;1.67;;;4.90;86.00;;;;;;4987585;28;20462;-77
2022/12/04 14:55:30;;;;;;;1.80;1.80;;;5.00;85.50;;;;;;4987204;28;20423;-76
2022/12/04 14:58:28;;;;;;;1.63;1.63;;;4.80;85.70;;;;;;4987677;28;20426;-77
2022/12/04 15:00:52;;;;;;;1.30;1.30;;;4.60;87.10;;;;;;4986993;28;20470;-77
2022/12/04 15:03:20;;;;;;;1.50;1.50;;;4.70;87.00;;;;;;4987683;28;20435;-77
2022/12/04 15:05:47;;;;;;;1.67;1.67;;;4.80;86.30;;;;;;4987189;28;20493;-77
2022/12/04 15:08:14;;;;;;;1.50;1.50;;;4.90;85.70;;;;;;4987302;28;20450;-77
2022/12/04 15:13:36;;;;;;;2.00;2.00;;;4.50;86.90;;;;;;4986816;28;20409;-77
2022/12/04 15:16:09;;;;;;;1.73;1.63;;;4.30;87.10;;;;;;4987138;28;20446;-77
2022/12/04 15:18:36;;;;;;;1.80;1.80;;;4.10;87.80;;;;;;4987207;28;20438;-77
2022/12/04 15:21:05;;;;;;;1.57;1.57;;;4.30;88.00;;;;;;4986549;28;20470;-77
2022/12/04 15:23:37;;;;;;;1.43;1.43;;;4.50;87.30;;;;;;4986749;28;20457;-77
2022/12/04 15:26:07;;;;;;;1.60;1.60;;;4.60;86.60;;;;;;4986213;28;20497;-77
2022/12/04 15:28:41;;;;;;;1.50;1.50;;;4.80;86.40;;;;;;4984301;28;20439;-77
2022/12/04 15:31:15;;;;;;;1.87;1.87;;;4.80;86.20;;;;;;4985558;28;20552;-77
2022/12/04 15:33:43;;;;;;;2.10;2.00;;;4.90;86.10;;;;;;4985558;28;20435;-77
2022/12/04 15:36:18;;;;;;;2.03;2.03;;;4.90;85.60;;;;;;4985448;28;20451;-78
2022/12/04 15:38:46;;;;;;;1.93;1.90;;;4.80;85.70;;;;;;4985451;28;20434;-77
2022/12/04 15:41:30;;;;;;;2.30;2.30;;;4.90;86.20;;;;;;4985695;28;20466;-77
2022/12/04 15:43:57;;;;;;;2.33;2.27;;;4.90;86.00;;;;;;4984278;28;20506;-77
2022/12/04 15:46:30;;;;;;;1.73;1.73;;;5.00;85.70;;;;;;4986262;28;20492;-77
2022/12/04 15:49:06;;;;;;;1.73;1.73;;;5.00;85.50;;;;;;4986536;28;20439;-77
2022/12/04 15:51:33;;;;;;;2.50;2.40;;;5.10;85.30;;;;;;4985681;28;20545;-77
2022/12/04 15:54:00;;;;;;;2.60;2.57;;;4.90;85.10;;;;;;4985424;28;20454;-77
2022/12/04 15:56:27;;;;;;;2.10;2.00;;;4.70;86.60;;;;;;4985741;28;20450;-77
2022/12/04 15:58:57;;;;;;;1.70;1.70;;;4.80;86.60;;;;;;4988908;28;20454;-79
2022/12/04 16:01:25;;;;;;;1.90;1.90;;;4.90;86.00;;;;;;4989538;28;20572;-76
2022/12/04 16:03:54;;;;;;;2.77;2.67;;;4.90;85.70;;;;;;4989648;28;20458;-78
2022/12/04 16:06:23;;;;;;;2.23;2.23;;;5.00;86.10;;;;;;4989702;28;20481;-77
2022/12/04 16:08:51;;;;;;;1.90;1.80;;;5.00;85.40;;;;;;4989478;28;20459;-78
2022/12/04 16:11:30;;;;;;;1.60;1.60;;;5.00;85.40;;;;;;4989490;28;20466;-78
2022/12/04 16:14:12;;;;;;;1.77;1.77;;;5.00;85.60;;;;;;4989883;28;20525;-78
2022/12/04 16:16:43;;;;;;;1.90;1.90;;;5.10;85.40;;;;;;4989791;28;20434;-77
2022/12/04 16:19:15;;;;;;;2.30;2.23;;;5.10;85.20;;;;;;4989166;28;20526;-78
2022/12/04 16:21:42;;;;;;;2.17;2.17;;;5.10;85.50;;;;;;4988487;28;20462;-78
2022/12/04 16:24:12;;;;;;;2.80;2.70;;;5.20;85.30;;;;;;4988067;28;20456;-78
2022/12/04 16:26:39;;;;;;;1.97;1.97;;;5.20;85.10;;;;;;4988176;28;20509;-78
2022/12/04 16:29:06;;;;;;;2.00;2.00;;;5.30;85.00;;;;;;4988272;28;20454;-79
2022/12/04 16:31:33;;;;;;;2.07;2.07;;;5.20;85.00;;;;;;4988705;28;20470;-79
2022/12/04 16:34:01;;;;;;;1.83;1.83;;;5.00;85.50;;;;;;4989254;28;20445;-78
2022/12/04 16:36:28;;;;;;;1.80;1.80;;;5.10;85.70;;;;;;4988457;28;20450;-80
2022/12/04 16:38:55;;;;;;;2.07;2.03;;;5.20;85.30;;;;;;4989060;28;20514;-78
2022/12/04 16:41:21;;;;;;;2.00;2.00;;;5.10;85.70;;;;;;4988366;28;20575;-77
2022/12/04 16:43:53;;;;;;;2.17;2.07;;;5.10;85.80;;;;;;4988772;28;20840;-78
2022/12/04 16:46:22;;;;;;;1.90;1.90;;;5.00;85.90;;;;;;4989046;28;20481;-77
2022/12/04 16:48:49;;;;;;;1.50;1.50;;;5.10;85.90;;;;;;4985386;28;20450;-78
2022/12/04 16:51:19;;;;;;;2.10;2.00;;;5.10;85.50;;;;;;4984826;28;20477;-77
2022/12/04 16:53:46;;;;;;;1.80;1.80;;;5.10;85.50;;;;;;4987962;28;20450;-77
2022/12/04 16:56:13;;;;;;;1.60;1.60;;;5.10;85.80;;;;;;4985696;28;20447;-79
2022/12/04 16:58:39;;;;;;;1.40;1.40;;;5.20;85.70;;;;;;4985187;28;20453;-78
2022/12/04 17:01:18;;;;;;;1.53;1.53;;;5.20;85.60;;;;;;4982977;28;20478;-77
2022/12/04 17:03:44;;;;;;;2.07;2.07;;;5.30;85.70;;;;;;4983914;28;20445;-78
2022/12/04 17:06:11;;;;;;;2.33;2.27;;;5.30;85.50;;;;;;4985943;28;20482;-77
2022/12/04 17:08:39;;;;;;;1.93;1.93;;;5.30;85.70;;;;;;4984698;28;20446;-78
2022/12/04 17:11:06;;;;;;;2.00;2.00;;;5.20;85.80;;;;;;4984478;28;20541;-77
2022/12/04 17:13:33;;;;;;;1.90;1.90;;;5.20;85.90;;;;;;4986499;28;20446;-77
2022/12/04 17:15:59;;;;;;;2.20;2.10;;;5.00;86.00;;;;;;4986130;28;20450;-78
2022/12/04 17:18:26;;;;;;;2.50;2.40;;;4.70;87.80;;;;;;4985641;28;20457;-78
2022/12/04 17:20:53;;;;;;;2.00;2.00;;;4.80;88.00;;;;;;4985544;28;20470;-78
2022/12/04 17:23:20;;;;;;;2.67;2.57;;;4.90;87.80;;;;;;4987463;28;20454;-78
2022/12/04 17:25:48;;;;;;;1.97;1.97;;;4.80;87.70;;;;;;4986903;28;20478;-78
2022/12/04 17:28:15;;;;;;;2.40;2.30;;;4.70;88.50;;;;;;4987475;28;20546;-77
2022/12/04 17:30:45;;;;;;;2.43;2.37;;;4.80;88.10;;;;;;4985726;28;20450;-78
2022/12/04 17:33:11;;;;;;;2.50;2.40;;;4.90;87.90;;;;;;4975674;28;20529;-78
2022/12/04 17:35:42;;;;;;;2.40;2.30;;;4.80;88.30;;;;;;4975324;28;20951;-77
2022/12/04 17:38:09;;;;;;;2.50;2.40;;;4.80;88.50;;;;;;4975584;28;20501;-77